Time;durP1;ratioP1;P1;durP2;ratioP2;P2;SDS_P1;SDS_P2;PMS_P1;PMS_P2;Temp;Humidity;BMP_temperature;BMP_pressure;BME280_temperature;BME280_humidity;BME280_pressure;Samples;Min_cycle;Max_cycle;Signal;HPM_P1;HPM_P2
2022/05/24 00:01:07;;;;;;;1.47;0.80;;;;;;;16.96;89.95;97039.69;5075560;28;20667;-69
2022/05/24 00:03:33;;;;;;;2.17;0.87;;;;;;;16.89;91.67;97033.84;5075505;28;20208;-69
2022/05/24 00:06:00;;;;;;;3.30;0.90;;;;;;;16.88;92.44;97056.41;5075752;28;20215;-69
2022/05/24 00:08:26;;;;;;;2.60;0.90;;;;;;;16.75;93.57;97043.66;5075635;28;20224;-70
2022/05/24 00:10:54;;;;;;;0.90;0.90;;;;;;;16.72;94.81;97054.13;5075529;28;20227;-69
2022/05/24 00:13:21;;;;;;;0.93;0.90;;;;;;;16.57;96.24;97051.59;5075601;28;20204;-69
2022/05/24 00:15:48;;;;;;;1.20;1.03;;;;;;;16.56;96.07;97050.78;5075518;28;20208;-69
2022/05/24 00:18:24;;;;;;;1.10;0.93;;;;;;;16.56;96.82;97061.50;5075458;28;20225;-70
2022/05/24 00:20:53;;;;;;;1.90;1.20;;;;;;;16.48;98.40;97056.75;5076072;28;20185;-69
2022/05/24 00:23:21;;;;;;;1.87;1.17;;;;;;;16.54;98.67;97055.63;5075438;28;20205;-70
2022/05/24 00:25:52;;;;;;;1.37;1.17;;;;;;;16.52;98.02;97062.38;5075354;28;20215;-69
2022/05/24 00:28:20;;;;;;;1.60;1.30;;;;;;;16.41;100.00;97044.72;5075314;28;20231;-69
2022/05/24 00:30:49;;;;;;;1.67;1.27;;;;;;;16.20;100.00;97054.75;5074872;28;20228;-68
2022/05/24 00:33:15;;;;;;;2.90;1.50;;;;;;;16.13;100.00;97043.56;5074904;28;20672;-69
2022/05/24 00:35:44;;;;;;;2.00;1.40;;;;;;;16.02;100.00;97055.41;5074621;28;20209;-68
2022/05/24 00:38:14;;;;;;;1.90;1.30;;;;;;;15.99;100.00;97052.50;5075091;28;20228;-68
2022/05/24 00:40:46;;;;;;;2.67;1.40;;;;;;;16.01;100.00;97061.09;5075617;28;20204;-69
2022/05/24 00:43:30;;;;;;;1.57;1.47;;;;;;;15.96;100.00;97050.38;5075031;28;20208;-69
2022/05/24 00:46:03;;;;;;;1.17;1.10;;;;;;;15.92;100.00;97046.66;5074738;28;20185;-69
2022/05/24 00:48:35;;;;;;;2.80;1.57;;;;;;;15.88;100.00;97051.75;5074494;28;20232;-69
2022/05/24 00:51:02;;;;;;;1.47;1.37;;;;;;;15.90;100.00;97036.22;5074827;28;20223;-69
2022/05/24 00:53:38;;;;;;;2.20;1.30;;;;;;;15.92;100.00;97039.41;5075218;28;20211;-69
2022/05/24 00:56:13;;;;;;;3.53;1.53;;;;;;;15.89;100.00;97034.59;5057325;28;20647;-69
2022/05/24 00:58:56;;;;;;;1.30;1.20;;;;;;;15.88;100.00;97035.66;5074968;28;20223;-69
2022/05/24 01:01:34;;;;;;;1.70;1.60;;;;;;;15.87;100.00;97030.59;5074731;28;20234;-68
2022/05/24 01:04:01;;;;;;;2.70;1.50;;;;;;;15.94;100.00;97036.44;5074695;28;20192;-69
2022/05/24 01:06:27;;;;;;;2.00;1.40;;;;;;;16.02;100.00;97046.59;5074599;28;20211;-69
2022/05/24 01:08:57;;;;;;;1.50;1.40;;;;;;;15.92;100.00;97050.13;5074466;28;20227;-69
2022/05/24 01:11:23;;;;;;;2.50;1.60;;;;;;;15.95;100.00;97052.25;5074113;28;20709;-69
2022/05/24 01:13:54;;;;;;;1.90;1.73;;;;;;;15.94;100.00;97050.66;5074441;28;20201;-69
2022/05/24 01:16:20;;;;;;;1.73;1.60;;;;;;;15.97;100.00;97049.31;5074621;28;20204;-69
2022/05/24 01:18:47;;;;;;;1.87;1.50;;;;;;;15.98;100.00;97038.31;5074273;28;20231;-69
2022/05/24 01:21:16;;;;;;;3.23;1.70;;;;;;;15.98;100.00;97040.19;5073984;28;20200;-69
2022/05/24 01:24:16;;;;;;;2.10;1.50;;;;;;;15.96;100.00;97035.09;5074252;28;20287;-69
2022/05/24 01:26:53;;;;;;;1.70;1.60;;;;;;;15.95;100.00;97036.19;5074264;28;20192;-69
2022/05/24 01:29:21;;;;;;;2.10;1.50;;;;;;;15.95;100.00;97044.22;5074143;28;20228;-69
2022/05/24 01:37:18;;;;;;;1.70;1.60;;;;;;;15.90;100.00;97036.22;5074094;28;20317;-69
2022/05/24 01:39:48;;;;;;;1.70;1.50;;;;;;;15.88;100.00;97035.66;5073973;28;20204;-69
2022/05/24 01:42:16;;;;;;;2.47;1.43;;;;;;;15.77;100.00;97031.44;5073944;28;20219;-69
2022/05/24 01:45:08;;;;;;;3.07;1.80;;;;;;;15.79;100.00;97045.38;5073902;28;20209;-69
2022/05/24 01:47:36;;;;;;;1.70;1.60;;;;;;;15.85;100.00;97036.25;5034693;28;20703;-68
2022/05/24 01:50:07;;;;;;;1.60;1.50;;;;;;;15.92;100.00;97022.53;5056127;28;20247;-69
2022/05/24 01:52:42;;;;;;;1.73;1.63;;;;;;;15.88;100.00;97022.25;5073558;28;20664;-69
2022/05/24 01:55:22;;;;;;;1.87;1.60;;;;;;;15.83;100.00;97016.94;5073523;28;20651;-69
2022/05/24 01:57:55;;;;;;;1.63;1.53;;;;;;;15.78;100.00;97022.31;5073373;28;20246;-68
2022/05/24 02:00:22;;;;;;;2.00;1.60;;;;;;;15.72;100.00;97012.72;5073740;28;20201;-69
2022/05/24 02:02:49;;;;;;;1.80;1.70;;;;;;;15.64;100.00;97005.25;5073694;28;20215;-69
2022/05/24 02:05:29;;;;;;;1.60;1.50;;;;;;;15.56;100.00;97013.88;5073680;28;20205;-69
2022/05/24 02:07:56;;;;;;;2.00;1.53;;;;;;;15.52;100.00;97009.34;5073570;28;20239;-69
2022/05/24 02:10:23;;;;;;;2.00;1.63;;;;;;;15.52;100.00;97006.66;5073525;28;20224;-69
2022/05/24 02:12:55;;;;;;;1.60;1.50;;;;;;;15.49;100.00;97012.56;5073531;28;20205;-69
2022/05/24 02:15:31;;;;;;;2.20;1.90;;;;;;;15.47;100.00;97026.22;5056081;28;20193;-69
2022/05/24 02:18:24;;;;;;;1.87;1.60;;;;;;;15.37;100.00;97031.63;5073512;28;20237;-69
2022/05/24 02:20:50;;;;;;;1.70;1.60;;;;;;;15.50;100.00;97035.59;5070039;28;20664;-68
2022/05/24 02:23:19;;;;;;;1.70;1.60;;;;;;;15.46;100.00;97024.63;5073177;28;20687;-69
2022/05/24 02:25:50;;;;;;;1.57;1.40;;;;;;;15.48;100.00;97032.41;5073173;28;20201;-69
2022/05/24 02:28:18;;;;;;;1.90;1.50;;;;;;;15.47;100.00;97023.53;5073361;28;20228;-69
2022/05/24 02:30:51;;;;;;;1.60;1.50;;;;;;;15.42;100.00;97026.25;5073312;28;20220;-69
2022/05/24 02:33:20;;;;;;;1.77;1.60;;;;;;;15.46;100.00;97024.63;5073423;28;20204;-69
2022/05/24 02:35:46;;;;;;;2.37;2.17;;;;;;;15.46;100.00;97023.81;5073317;28;20258;-69
2022/05/24 02:38:12;;;;;;;1.80;1.70;;;;;;;15.44;100.00;97020.63;5073184;28;20224;-69
2022/05/24 02:43:23;;;;;;;2.03;1.77;;;;;;;15.43;100.00;97011.78;5073411;28;20175;-69
2022/05/24 02:45:50;;;;;;;2.30;2.00;;;;;;;15.41;100.00;97011.25;5072958;28;20218;-69
2022/05/24 02:48:16;;;;;;;2.17;1.97;;;;;;;15.38;100.00;97003.75;5073001;28;20243;-69
2022/05/24 02:50:43;;;;;;;4.00;1.90;;;;;;;15.38;100.00;97017.16;5073131;28;20228;-69
2022/05/24 02:53:09;;;;;;;3.00;2.10;;;;;;;15.45;100.00;97004.28;5073189;28;20204;-69
2022/05/24 02:55:36;;;;;;;2.80;2.20;;;;;;;15.49;100.00;96996.50;5073004;28;20208;-69
2022/05/24 02:58:03;;;;;;;2.20;2.10;;;;;;;15.43;100.00;97005.63;5073422;28;20225;-69
2022/05/24 03:00:30;;;;;;;2.50;2.13;;;;;;;15.43;100.00;96995.72;5077004;28;20201;-69
2022/05/24 03:02:57;;;;;;;2.83;1.90;;;;;;;15.41;100.00;96992.50;5076893;28;20200;-68
2022/05/24 03:05:25;;;;;;;2.17;2.07;;;;;;;15.37;100.00;96996.81;5076456;28;20560;-69
2022/05/24 03:10:35;;;;;;;2.73;2.13;;;;;;;15.35;100.00;96998.16;5076474;28;20203;-69
2022/05/24 03:15:47;;;;;;;2.77;2.20;;;;;;;15.40;100.00;97003.50;5076508;28;20184;-68
2022/05/24 03:18:16;;;;;;;2.70;2.50;;;;;;;15.36;100.00;96997.91;5076151;28;20726;-68
2022/05/24 03:20:43;;;;;;;2.30;2.00;;;;;;;15.41;100.00;97000.53;5076442;28;20228;-69
2022/05/24 03:23:10;;;;;;;2.40;2.20;;;;;;;15.44;100.00;97010.72;5076082;28;20205;-69
2022/05/24 03:25:36;;;;;;;2.63;2.43;;;;;;;15.39;100.00;97024.13;5076501;28;20204;-69
2022/05/24 03:28:05;;;;;;;2.87;2.30;;;;;;;15.42;100.00;97018.22;5076399;28;20225;-69
2022/05/24 03:30:34;;;;;;;2.90;2.23;;;;;;;15.41;100.00;97013.13;5076336;28;20204;-69
2022/05/24 03:33:00;;;;;;;2.50;2.30;;;;;;;15.43;100.00;97016.34;5058198;28;20579;-69
2022/05/24 03:35:27;;;;;;;2.67;2.17;;;;;;;15.44;100.00;97021.44;5076102;28;20204;-69
2022/05/24 03:37:53;;;;;;;2.63;2.43;;;;;;;15.47;100.00;97018.19;5075756;28;20226;-69
2022/05/24 03:40:19;;;;;;;2.80;2.60;;;;;;;15.44;100.00;97031.34;5075529;28;20216;-69
2022/05/24 03:42:47;;;;;;;2.53;2.33;;;;;;;15.44;100.00;97034.81;5075818;28;20222;-69
2022/05/24 03:45:14;;;;;;;2.70;2.50;;;;;;;15.37;100.00;97034.31;5075647;28;20204;-69
2022/05/24 03:47:41;;;;;;;2.50;2.40;;;;;;;15.45;100.00;97036.44;5075565;28;20259;-69
2022/05/24 03:50:09;;;;;;;3.33;2.10;;;;;;;15.50;100.00;97028.38;5075608;28;20215;-68
2022/05/24 03:52:35;;;;;;;2.20;2.10;;;;;;;15.49;100.00;97029.44;5075674;28;20227;-69
2022/05/24 03:55:02;;;;;;;3.83;1.80;;;;;;;15.45;100.00;97020.34;5075725;28;20208;-68
2022/05/24 04:00:16;;;;;;;2.00;1.90;;;;;;;15.46;100.00;97029.97;5075734;28;20230;-69
2022/05/24 04:02:42;;;;;;;3.03;2.30;;;;;;;15.55;100.00;97035.56;5075213;28;20662;-69
2022/05/24 04:05:10;;;;;;;2.07;1.97;;;;;;;15.57;100.00;97036.91;5075382;28;20204;-69
2022/05/24 04:07:37;;;;;;;2.37;2.17;;;;;;;15.55;100.00;97039.06;5075381;28;20227;-69
2022/05/24 04:10:06;;;;;;;2.03;1.93;;;;;;;15.53;100.00;97029.69;5074552;28;20205;-68
2022/05/24 04:12:33;;;;;;;2.00;1.90;;;;;;;15.58;100.00;97033.16;5075125;28;20695;-69
2022/05/24 04:14:59;;;;;;;2.13;2.00;;;;;;;15.65;100.00;97046.25;5075420;28;20292;-69
2022/05/24 04:17:25;;;;;;;2.10;1.90;;;;;;;15.67;100.00;97041.41;5075207;28;20230;-68
2022/05/24 04:19:52;;;;;;;1.93;1.83;;;;;;;15.64;100.00;97021.34;5075070;28;20683;-69
2022/05/24 04:22:19;;;;;;;2.23;1.93;;;;;;;15.64;100.00;97009.81;5075070;28;20207;-69
2022/05/24 04:24:45;;;;;;;2.00;1.90;;;;;;;15.66;100.00;97016.50;5074748;28;20211;-69
2022/05/24 04:27:12;;;;;;;2.40;2.20;;;;;;;15.74;100.00;97042.72;5074704;28;20208;-69
2022/05/24 04:29:40;;;;;;;2.20;2.00;;;;;;;15.71;100.00;97053.19;5075167;28;20205;-69
2022/05/24 04:32:08;;;;;;;2.40;2.20;;;;;;;15.78;100.00;97049.13;5074900;28;20225;-69
2022/05/24 04:34:35;;;;;;;2.00;1.90;;;;;;;15.79;100.00;97050.72;5074956;28;20213;-69
2022/05/24 04:37:01;;;;;;;2.57;1.80;;;;;;;15.78;100.00;97048.34;5074625;28;20215;-69
2022/05/24 04:39:27;;;;;;;3.50;2.30;;;;;;;15.84;100.00;97050.69;5074550;28;20663;-69
2022/05/24 04:44:38;;;;;;;2.13;1.90;;;;;;;15.97;100.00;97047.41;5074497;28;20225;-69
2022/05/24 04:47:10;;;;;;;3.10;1.73;;;;;;;15.96;100.00;97061.09;5074044;28;20230;-69
2022/05/24 04:49:39;;;;;;;3.20;1.90;;;;;;;15.97;100.00;97063.50;5074385;28;20219;-70
2022/05/24 04:52:08;;;;;;;3.73;2.10;;;;;;;15.97;100.00;97068.06;5074407;28;20224;-69
2022/05/24 04:54:35;;;;;;;2.70;2.17;;;;;;;15.97;100.00;97063.50;5074151;28;20694;-69
2022/05/24 04:57:01;;;;;;;3.53;2.40;;;;;;;16.01;100.00;97082.53;5074469;28;20227;-69
2022/05/24 04:59:28;;;;;;;2.30;2.10;;;;;;;16.00;100.00;97081.72;5074304;28;20201;-69
2022/05/24 05:01:54;;;;;;;2.73;2.30;;;;;;;15.95;100.00;97080.94;5074135;28;20211;-69
2022/05/24 05:04:23;;;;;;;2.60;2.40;;;;;;;15.97;100.00;97086.84;5074283;28;20208;-69
2022/05/24 05:06:49;;;;;;;3.50;2.50;;;;;;;15.92;100.00;97079.59;5074004;28;20228;-69
2022/05/24 05:09:16;;;;;;;2.70;2.23;;;;;;;16.00;100.00;97079.03;5073206;28;20228;-69
2022/05/24 05:11:43;;;;;;;2.13;1.90;;;;;;;16.09;100.00;97074.69;5073974;28;20228;-69
2022/05/24 05:14:10;;;;;;;2.10;1.90;;;;;;;16.17;100.00;97068.75;5073962;28;20219;-69
2022/05/24 05:16:38;;;;;;;2.43;2.17;;;;;;;16.24;100.00;97069.22;5073495;28;20212;-69
2022/05/24 05:19:06;;;;;;;2.10;1.70;;;;;;;16.24;100.00;97065.75;5072855;28;20233;-69
2022/05/24 05:21:35;;;;;;;4.40;1.60;;;;;;;16.33;100.00;97072.13;5073101;28;20666;-69
2022/05/24 05:24:02;;;;;;;2.33;1.40;;;;;;;16.21;100.00;97069.81;5073157;28;20205;-68
2022/05/24 05:26:29;;;;;;;4.30;1.33;;;;;;;16.12;100.00;97084.06;5073545;28;20208;-69
2022/05/24 05:28:55;;;;;;;2.73;1.60;;;;;;;16.09;100.00;97090.78;5072900;28;20323;-69
2022/05/24 05:31:23;;;;;;;2.03;1.50;;;;;;;16.23;100.00;97089.09;5073266;28;20228;-69
2022/05/24 05:33:50;;;;;;;1.80;1.40;;;;;;;16.22;100.00;97100.09;5072908;28;20208;-69
2022/05/24 05:36:18;;;;;;;1.53;1.40;;;;;;;16.30;100.00;97103.00;5073762;28;20205;-69
2022/05/24 05:38:46;;;;;;;1.20;1.10;;;;;;;16.39;100.00;97101.34;5073407;28;20568;-69
2022/05/24 05:41:21;;;;;;;3.07;1.23;;;;;;;16.59;100.00;97109.25;5073115;28;20224;-69
2022/05/24 05:43:48;;;;;;;1.07;1.00;;;;;;;16.61;98.50;97108.97;5073336;28;20212;-69
2022/05/24 05:46:16;;;;;;;2.90;1.50;;;;;;;16.64;96.31;97116.50;5073152;28;20216;-69
2022/05/24 05:48:44;;;;;;;1.17;1.17;;;;;;;16.62;98.34;97107.91;5073178;28;20229;-69
2022/05/24 05:51:12;;;;;;;1.87;1.33;;;;;;;16.52;98.09;97114.13;5073137;28;20258;-69
2022/05/24 05:53:38;;;;;;;1.77;1.30;;;;;;;16.54;97.31;97114.66;5073002;28;20204;-69
2022/05/24 05:56:06;;;;;;;2.47;1.17;;;;;;;16.59;95.86;97111.13;5072186;28;20655;-69
2022/05/24 05:58:32;;;;;;;1.33;1.10;;;;;;;16.60;95.88;97110.84;5072591;28;20221;-69
2022/05/24 06:01:00;;;;;;;3.97;1.50;;;;;;;16.60;94.74;97110.06;5073022;28;20205;-70
2022/05/24 06:03:27;;;;;;;3.93;1.53;;;;;;;16.53;94.91;97117.63;5072693;28;20663;-70
2022/05/24 06:05:54;;;;;;;3.80;1.33;;;;;;;16.54;95.96;97125.41;5072681;28;20610;-69
2022/05/24 06:08:21;;;;;;;4.17;2.30;;;;;;;16.68;94.15;97122.88;5073175;28;20224;-70
2022/05/24 06:10:47;;;;;;;1.50;1.40;;;;;;;16.79;98.15;97124.41;5072753;28;20204;-70
2022/05/24 06:13:14;;;;;;;1.97;1.30;;;;;;;16.90;96.04;97124.06;5072729;28;20310;-70
2022/05/24 06:15:40;;;;;;;2.37;1.30;;;;;;;17.03;95.20;97126.09;5073172;28;20204;-70
2022/05/24 06:18:07;;;;;;;1.90;1.00;;;;;;;17.05;93.25;97115.06;5073037;28;20228;-70
2022/05/24 06:20:33;;;;;;;2.50;1.17;;;;;;;17.09;92.28;97116.91;5072842;28;20218;-70
2022/05/24 06:23:00;;;;;;;1.97;1.13;;;;;;;17.03;87.68;97120.72;5073367;28;20204;-69
2022/05/24 06:25:28;;;;;;;2.97;1.27;;;;;;;17.06;89.20;97114.75;5072867;28;20226;-70
2022/05/24 06:27:56;;;;;;;1.23;1.10;;;;;;;17.09;86.89;97130.31;5072426;28;20311;-70
2022/05/24 06:30:24;;;;;;;1.57;1.20;;;;;;;17.05;87.38;97123.91;5071616;28;20215;-70
2022/05/24 06:32:51;;;;;;;2.27;1.20;;;;;;;17.07;83.72;97126.31;5070799;28;20221;-70
2022/05/24 06:35:20;;;;;;;1.97;1.37;;;;;;;17.14;85.72;97126.81;5074935;28;20211;-70
2022/05/24 06:37:48;;;;;;;2.07;1.03;;;;;;;17.18;82.52;97141.25;5074487;28;20591;-70
2022/05/24 06:40:18;;;;;;;4.17;1.13;;;;;;;17.16;82.35;97151.47;5074958;28;20571;-70
2022/05/24 06:42:44;;;;;;;1.70;1.20;;;;;;;17.17;80.35;97147.72;5074940;28;20197;-70
2022/05/24 06:45:11;;;;;;;2.13;1.20;;;;;;;17.24;80.34;97148.19;5074085;28;20690;-70
2022/05/24 06:47:40;;;;;;;3.57;1.27;;;;;;;17.26;82.58;97151.38;5075980;28;20243;-70
2022/05/24 06:50:07;;;;;;;1.20;1.03;;;;;;;17.24;81.19;97165.09;5076906;28;20188;-70
2022/05/24 06:52:34;;;;;;;2.97;1.10;;;;;;;17.21;80.73;97171.06;5076776;28;20232;-70
2022/05/24 06:55:00;;;;;;;2.57;1.20;;;;;;;17.15;80.33;97176.75;5076729;28;20213;-70
2022/05/24 06:57:27;;;;;;;1.43;1.07;;;;;;;17.09;80.46;97178.66;5076768;28;20220;-70
2022/05/24 07:02:37;;;;;;;2.93;1.30;;;;;;;17.05;81.58;97201.00;5076448;28;20303;-71
2022/05/24 07:05:13;;;;;;;4.77;0.97;;;;;;;17.04;80.05;97223.53;5076409;28;20236;-69
2022/05/24 07:07:40;;;;;;;2.23;0.67;;;;;;;14.98;81.36;97276.91;5076515;28;20232;-69
2022/05/24 07:10:12;;;;;;;2.47;0.87;;;;;;;13.95;97.67;97273.53;5076609;28;20295;-68
2022/05/24 07:12:39;;;;;;;3.47;1.03;;;;;;;13.35;100.00;97284.59;5076450;28;20213;-68
2022/05/24 07:15:06;;;;;;;1.97;0.93;;;;;;;13.20;100.00;97289.81;5075994;28;20574;-67
2022/05/24 07:17:32;;;;;;;2.67;1.00;;;;;;;13.22;100.00;97281.53;5076383;28;20224;-67
2022/05/24 07:19:59;;;;;;;3.10;0.93;;;;;;;13.18;100.00;97297.28;5076264;28;20210;-67
2022/05/24 07:22:25;;;;;;;9.80;1.10;;;;;;;13.23;100.00;97283.97;5075831;28;20680;-67
2022/05/24 07:24:52;;;;;;;2.47;0.77;;;;;;;13.25;100.00;97289.06;5076298;28;20209;-67
2022/05/24 07:27:22;;;;;;;5.27;1.00;;;;;;;13.31;100.00;97285.34;5076164;28;20201;-68
2022/05/24 07:29:50;;;;;;;3.37;0.90;;;;;;;13.36;100.00;97274.72;5075992;28;20193;-67
2022/05/24 07:32:16;;;;;;;3.00;1.00;;;;;;;13.37;100.00;97277.13;5075579;28;20229;-67
2022/05/24 07:34:42;;;;;;;2.47;0.97;;;;;;;13.41;100.00;97294.25;5076129;28;20205;-67
2022/05/24 07:37:16;;;;;;;4.37;0.73;;;;;;;13.42;100.00;97298.53;5075945;28;20210;-68
2022/05/24 07:39:43;;;;;;;3.63;0.90;;;;;;;13.48;100.00;97299.38;5076013;28;20218;-68
2022/05/24 07:47:37;;;;;;;1.20;0.80;;;;;;;13.70;100.00;97319.56;5075729;28;20221;-68
2022/05/24 07:50:05;;;;;;;4.07;0.90;;;;;;;13.73;100.00;97312.91;5075919;28;20192;-68
2022/05/24 07:52:32;;;;;;;3.50;0.60;;;;;;;13.71;100.00;97321.19;5075616;28;20232;-68
2022/05/24 07:54:58;;;;;;;1.77;0.90;;;;;;;13.83;100.00;97321.81;5075743;28;20215;-68
2022/05/24 07:57:24;;;;;;;2.10;1.03;;;;;;;13.82;99.93;97336.25;5075626;28;20227;-70
2022/05/24 07:59:51;;;;;;;2.63;0.80;;;;;;;13.96;100.00;97328.56;5075656;28;20219;-68
2022/05/24 08:02:21;;;;;;;3.17;1.20;;;;;;;14.12;100.00;97332.97;5075650;28;20207;-68
2022/05/24 08:04:48;;;;;;;3.53;0.87;;;;;;;14.30;100.00;97336.00;5075277;28;20205;-68
2022/05/24 08:07:14;;;;;;;1.80;1.10;;;;;;;14.46;100.00;97334.22;5075107;28;20575;-69
2022/05/24 08:09:40;;;;;;;1.03;0.70;;;;;;;14.46;95.49;97336.91;5075280;28;20227;-68
2022/05/24 08:12:07;;;;;;;1.37;0.67;;;;;;;14.51;93.73;97339.63;5075254;28;20221;-69
2022/05/24 08:14:34;;;;;;;1.80;0.80;;;;;;;14.50;97.20;97338.81;5075631;28;20211;-69
2022/05/24 08:17:00;;;;;;;12.73;1.40;;;;;;;14.64;98.18;97339.13;5075312;28;20208;-69
2022/05/24 08:19:26;;;;;;;1.53;0.60;;;;;;;14.75;95.24;97344.25;5075660;28;20235;-69
2022/05/24 08:21:53;;;;;;;0.70;0.60;;;;;;;14.70;94.14;97340.78;5075749;28;20201;-69
2022/05/24 08:24:19;;;;;;;1.43;0.80;;;;;;;14.82;92.88;97341.31;5074795;28;20682;-69
2022/05/24 08:26:45;;;;;;;1.87;0.60;;;;;;;14.80;87.51;97346.97;5075073;28;20209;-69
2022/05/24 08:29:12;;;;;;;3.90;0.97;;;;;;;14.78;91.09;97353.63;5075151;28;20231;-68
2022/05/24 08:31:38;;;;;;;2.30;1.00;;;;;;;14.76;90.57;97359.25;5075026;28;20211;-69
2022/05/24 08:34:04;;;;;;;3.33;1.60;;;;;;;14.85;95.57;97368.38;5074737;28;20204;-69
2022/05/24 08:36:31;;;;;;;0.57;0.57;;;;;;;14.88;87.50;97378.56;5074613;28;20516;-69
2022/05/24 08:38:57;;;;;;;0.77;0.53;;;;;;;14.93;86.11;97381.25;5074790;28;20228;-69
2022/05/24 08:41:46;;;;;;;0.50;0.50;;;;;;;14.89;83.15;97385.53;5074704;28;20212;-69
2022/05/24 08:50:14;;;;;;;1.23;0.80;;;;;;;15.23;82.47;97394.72;5059554;28;20539;-70
2022/05/24 08:53:08;;;;;;;0.80;0.63;;;;;;;15.45;83.50;97389.19;5074642;28;20239;-69
2022/05/24 08:55:38;;;;;;;2.63;0.70;;;;;;;15.55;76.22;97398.03;5074253;28;20607;-69
2022/05/24 08:58:10;;;;;;;1.97;0.70;;;;;;;15.72;78.49;97395.09;5074131;28;20228;-69
2022/05/24 09:00:39;;;;;;;0.70;0.70;;;;;;;15.90;87.77;97394.56;5041511;28;20192;-70
2022/05/24 09:03:08;;;;;;;2.60;0.50;;;;;;;16.00;82.17;97386.53;5074451;28;20204;-70
2022/05/24 09:05:41;;;;;;;1.17;0.63;;;;;;;16.27;84.06;97381.66;5074493;28;20244;-69
2022/05/24 09:08:21;;;;;;;1.33;0.60;;;;;;;16.37;79.93;97387.03;5074373;28;20228;-69
2022/05/24 09:10:54;;;;;;;0.47;0.47;;;;;;;16.17;71.75;97395.91;5074820;28;20192;-69
2022/05/24 09:13:41;;;;;;;3.07;0.70;;;;;;;16.16;73.48;97388.13;5073830;28;20209;-68
2022/05/24 09:16:11;;;;;;;0.60;0.60;;;;;;;16.25;72.40;97386.50;5073767;28;20195;-69
2022/05/24 09:18:51;;;;;;;1.27;0.60;;;;;;;16.38;69.22;97388.63;5074249;28;20552;-68
2022/05/24 09:21:22;;;;;;;1.40;0.53;;;;;;;16.38;68.39;97394.78;5073998;28;20203;-69
2022/05/24 09:24:03;;;;;;;1.93;0.70;;;;;;;16.67;68.97;97401.19;5073747;28;20270;-69
2022/05/24 09:26:34;;;;;;;2.47;0.83;;;;;;;16.93;67.29;97394.69;5073847;28;20185;-69
2022/05/24 09:29:14;;;;;;;1.77;0.70;;;;;;;17.07;66.64;97394.88;5073514;28;20240;-70
2022/05/24 09:31:44;;;;;;;3.13;0.67;;;;;;;16.84;66.45;97399.00;5073954;28;20193;-69
2022/05/24 09:34:20;;;;;;;1.83;0.80;;;;;;;17.17;68.77;97410.94;5073767;28;20213;-70
2022/05/24 09:36:54;;;;;;;0.70;0.70;;;;;;;17.25;66.34;97421.91;5073443;28;20208;-69
2022/05/24 09:39:35;;;;;;;1.53;0.73;;;;;;;17.06;72.03;97417.44;5073667;28;20249;-70
2022/05/24 09:42:10;;;;;;;1.23;0.60;;;;;;;16.78;63.96;97418.88;5073223;28;20551;-69
2022/05/24 09:45:09;;;;;;;2.87;0.60;;;;;;;16.29;62.02;97422.44;5073687;28;20203;-69
2022/05/24 09:47:52;;;;;;;2.57;0.50;;;;;;;16.55;62.71;97427.53;5046281;28;20240;-69
2022/05/24 09:50:29;;;;;;;1.43;0.67;;;;;;;16.52;62.67;97438.00;5073414;28;20212;-69
2022/05/24 09:53:37;;;;;;;1.70;0.60;;;;;;;16.56;69.37;97434.50;5073854;28;20208;-70
2022/05/24 09:56:19;;;;;;;1.47;0.67;;;;;;;17.01;65.36;97434.34;5069541;28;20212;-70
2022/05/24 09:58:58;;;;;;;1.80;0.80;;;;;;;17.44;63.30;97432.84;5073516;28;20289;-69
2022/05/24 10:01:35;;;;;;;0.57;0.40;;;;;;;17.68;60.08;97433.78;5073231;28;20655;-70
2022/05/24 10:04:33;;;;;;;1.23;0.60;;;;;;;17.21;58.26;97439.66;5073477;28;20204;-69
2022/05/24 10:07:04;;;;;;;0.57;0.57;;;;;;;17.41;60.22;97444.97;5072755;28;20204;-69
2022/05/24 10:09:45;;;;;;;0.83;0.60;;;;;;;17.26;59.28;97454.94;5072479;28;20197;-69
2022/05/24 10:12:45;;;;;;;0.83;0.57;;;;;;;17.50;58.13;97454.06;5073039;28;20559;-69
2022/05/24 10:15:24;;;;;;;1.60;0.60;;;;;;;17.67;52.89;97446.44;5073347;28;20185;-69
2022/05/24 10:17:56;;;;;;;1.57;0.50;;;;;;;17.80;55.03;97443.13;5073171;28;20224;-70
2022/05/24 10:20:49;;;;;;;0.50;0.50;;;;;;;17.65;55.34;97439.72;5073173;28;20208;-70
2022/05/24 10:23:44;;;;;;;1.00;0.67;;;;;;;17.95;55.19;97452.94;5072861;28;20189;-69
2022/05/24 10:26:41;;;;;;;2.40;0.80;;;;;;;17.89;53.88;97446.81;5073184;28;20195;-70
2022/05/24 10:29:10;;;;;;;1.00;0.60;;;;;;;18.04;53.55;97445.88;5040697;28;20323;-70
2022/05/24 10:32:04;;;;;;;1.43;0.60;;;;;;;17.90;51.81;97447.59;5073167;28;20211;-70
2022/05/24 10:40:43;;;;;;;3.13;0.63;;;;;;;18.14;55.67;97432.38;5072671;28;20237;-70
2022/05/24 10:43:45;;;;;;;1.30;0.67;;;;;;;18.00;55.02;97432.22;5072032;28;20658;-69
2022/05/24 10:46:16;;;;;;;1.20;0.70;;;;;;;18.33;50.57;97433.31;5072997;28;20199;-69
2022/05/24 10:49:02;;;;;;;0.50;0.50;;;;;;;18.60;55.20;97426.31;5072230;28;20240;-69
2022/05/24 10:51:48;;;;;;;1.60;0.70;;;;;;;18.88;52.88;97430.06;5072256;28;20550;-70
2022/05/24 10:54:20;;;;;;;0.57;0.53;;;;;;;18.58;49.65;97430.38;5072500;28;20212;-69
2022/05/24 10:56:56;;;;;;;1.33;0.70;;;;;;;18.35;51.49;97417.69;5072668;28;20204;-70
2022/05/24 10:59:44;;;;;;;0.87;0.50;;;;;;;18.51;51.64;97422.63;5072402;28;20231;-69
2022/05/24 11:02:11;;;;;;;1.60;0.67;;;;;;;18.73;55.83;97422.94;5072598;28;20193;-70
2022/05/24 11:04:50;;;;;;;1.57;0.70;;;;;;;18.86;49.60;97424.16;5072517;28;20261;-70
2022/05/24 11:07:19;;;;;;;0.70;0.70;;;;;;;18.42;49.65;97423.53;5072554;28;20579;-69
2022/05/24 11:10:05;;;;;;;0.97;0.60;;;;;;;18.21;49.18;97428.28;5072529;28;20212;-69
2022/05/24 11:12:37;;;;;;;1.47;0.80;;;;;;;17.93;50.87;97439.81;5072589;28;20189;-69
2022/05/24 11:15:23;;;;;;;1.20;0.70;;;;;;;18.32;52.38;97435.16;5072740;28;20200;-70
2022/05/24 11:17:50;;;;;;;0.50;0.50;;;;;;;18.62;54.04;97431.41;5072598;28;20224;-70
2022/05/24 11:20:24;;;;;;;1.23;0.60;;;;;;;18.46;51.08;97425.38;5074492;28;20200;-70
2022/05/24 11:23:02;;;;;;;0.80;0.63;;;;;;;18.74;52.32;97432.63;5075434;28;20197;-69
2022/05/24 11:25:49;;;;;;;1.30;0.80;;;;;;;18.75;49.29;97436.94;5075852;28;20271;-69
2022/05/24 11:28:23;;;;;;;4.10;0.80;;;;;;;19.00;49.47;97425.06;5076152;28;20228;-70
2022/05/24 11:30:50;;;;;;;1.20;0.70;;;;;;;18.56;48.89;97432.56;5076301;28;20189;-69
2022/05/24 11:33:40;;;;;;;2.00;0.60;;;;;;;19.13;50.48;97432.44;5075824;28;20224;-69
2022/05/24 11:36:37;;;;;;;2.07;0.83;;;;;;;18.55;48.86;97423.66;5075896;28;20204;-69
2022/05/24 11:39:25;;;;;;;0.70;0.70;;;;;;;18.33;50.21;97431.41;5075248;28;20221;-70
2022/05/24 11:42:23;;;;;;;2.27;0.63;;;;;;;18.16;50.98;97431.00;5076423;28;20216;-69
2022/05/24 11:44:51;;;;;;;4.43;0.80;;;;;;;18.28;51.53;97422.56;5075640;28;20250;-69
2022/05/24 11:47:47;;;;;;;1.13;0.57;;;;;;;18.32;51.73;97427.09;5075478;28;20213;-69
2022/05/24 11:50:31;;;;;;;1.53;1.00;;;;;;;18.51;50.69;97428.00;5045991;28;20205;-69
2022/05/24 11:53:08;;;;;;;0.67;0.67;;;;;;;18.47;50.26;97418.91;5076169;28;20231;-69
2022/05/24 11:55:43;;;;;;;2.17;0.80;;;;;;;18.18;50.85;97428.84;5075226;28;20570;-69
2022/05/24 11:58:21;;;;;;;1.43;0.63;;;;;;;18.24;52.21;97430.38;5076394;28;20227;-69
2022/05/24 12:00:59;;;;;;;1.90;0.70;;;;;;;18.10;51.39;97436.72;5075634;28;20204;-69
2022/05/24 12:09:21;;;;;;;3.83;1.17;;;;;;;18.02;54.54;97437.31;5061692;28;20326;-70
2022/05/24 12:11:48;;;;;;;6.40;1.50;;;;;;;18.10;50.77;97436.72;5075567;28;20560;-70
2022/05/24 12:14:37;;;;;;;25.80;5.97;;;;;;;18.36;50.79;97424.66;5075074;28;20699;-69
2022/05/24 12:17:06;;;;;;;5.13;1.20;;;;;;;18.24;50.86;97432.28;5074853;28;20205;-70
2022/05/24 12:19:37;;;;;;;1.53;0.80;;;;;;;18.53;50.00;97433.94;5075115;28;20209;-69
2022/05/24 12:22:11;;;;;;;0.50;0.50;;;;;;;18.43;47.83;97427.84;5075228;28;20203;-69
2022/05/24 12:24:37;;;;;;;2.47;0.60;;;;;;;18.59;49.25;97435.47;5075325;28;20211;-70
2022/05/24 12:27:34;;;;;;;2.53;0.70;;;;;;;18.99;48.99;97432.34;5075603;28;20219;-70
2022/05/24 12:30:25;;;;;;;0.63;0.60;;;;;;;19.36;50.97;97429.75;5074454;28;20279;-70
2022/05/24 12:32:53;;;;;;;1.53;0.70;;;;;;;19.37;48.25;97425.19;5074260;28;20189;-70
2022/05/24 12:35:22;;;;;;;0.73;0.70;;;;;;;19.59;45.54;97423.50;5075392;28;20655;-70